Tubac, Arizona
Current Conditions -  °F | °C
As of 10:54 PM on Thursday 30 Oct 2014 (Local Time) from KOLS Reporting Station
Clear Clear  
Wind Chill: 61°   Ceiling: Unl
Heat Index: 61°   Visibility: 10mi
Dew Point: 42°   Wind: 3mph
Humidity: 50%   Direction: 30°NNE
Pressure: 30.11"   Gusts: NA
Location:  31.61°N, 111.05°W
Report Text: KOLS 310554Z AUTO 03003KT 10SM CLR 16/06 A3011 RMK AO2 SLP138 T01610056 10283 20156 50002
Loading
Personal Weather Stations






























Interactive Weather Map
Tropical Storm Tracking
New forecast layout! Learn more

10-Day Weather Forecast

Advertisements
Track Severe Weather on mobile